sensor_id;sensor_type;location;lat;lon;timestamp;P1;durP1;ratioP1;P2;durP2;ratioP2
18879;SDS011;9572;52.378;13.404;2023-05-07T00:01:25;15.37;;;11.37;;
18879;SDS011;9572;52.378;13.404;2023-05-07T00:03:52;17.03;;;11.90;;
18879;SDS011;9572;52.378;13.404;2023-05-07T00:06:19;14.23;;;10.53;;
18879;SDS011;9572;52.378;13.404;2023-05-07T00:08:45;14.23;;;10.77;;
18879;SDS011;9572;52.378;13.404;2023-05-07T00:11:12;15.87;;;11.30;;
18879;SDS011;9572;52.378;13.404;2023-05-07T00:13:39;21.47;;;12.20;;
18879;SDS011;9572;52.378;13.404;2023-05-07T00:16:06;17.60;;;11.67;;
18879;SDS011;9572;52.378;13.404;2023-05-07T00:18:34;17.70;;;11.70;;
18879;SDS011;9572;52.378;13.404;2023-05-07T00:21:01;14.37;;;10.77;;
18879;SDS011;9572;52.378;13.404;2023-05-07T00:23:28;13.33;;;9.50;;
18879;SDS011;9572;52.378;13.404;2023-05-07T00:25:55;14.30;;;10.80;;
18879;SDS011;9572;52.378;13.404;2023-05-07T00:28:22;13.43;;;10.30;;
18879;SDS011;9572;52.378;13.404;2023-05-07T00:30:49;15.13;;;10.47;;
18879;SDS011;9572;52.378;13.404;2023-05-07T00:33:16;16.97;;;10.20;;
18879;SDS011;9572;52.378;13.404;2023-05-07T00:35:44;13.93;;;10.33;;
18879;SDS011;9572;52.378;13.404;2023-05-07T00:38:11;11.87;;;9.73;;
18879;SDS011;9572;52.378;13.404;2023-05-07T00:40:38;17.17;;;10.03;;
18879;SDS011;9572;52.378;13.404;2023-05-07T00:43:05;14.87;;;9.30;;
18879;SDS011;9572;52.378;13.404;2023-05-07T00:45:32;14.60;;;10.03;;
18879;SDS011;9572;52.378;13.404;2023-05-07T00:48:00;12.93;;;9.00;;
18879;SDS011;9572;52.378;13.404;2023-05-07T00:50:28;11.90;;;9.00;;
18879;SDS011;9572;52.378;13.404;2023-05-07T00:52:57;12.03;;;8.73;;
18879;SDS011;9572;52.378;13.404;2023-05-07T00:55:25;14.20;;;8.80;;
18879;SDS011;9572;52.378;13.404;2023-05-07T00:57:52;12.17;;;9.00;;
18879;SDS011;9572;52.378;13.404;2023-05-07T01:00:19;13.20;;;8.20;;
18879;SDS011;9572;52.378;13.404;2023-05-07T01:02:46;17.93;;;8.60;;
18879;SDS011;9572;52.378;13.404;2023-05-07T01:05:14;10.83;;;7.80;;
18879;SDS011;9572;52.378;13.404;2023-05-07T01:07:43;12.27;;;7.87;;
18879;SDS011;9572;52.378;13.404;2023-05-07T01:10:12;11.90;;;8.23;;
18879;SDS011;9572;52.378;13.404;2023-05-07T01:12:38;11.10;;;8.10;;
18879;SDS011;9572;52.378;13.404;2023-05-07T01:15:07;11.27;;;8.23;;
18879;SDS011;9572;52.378;13.404;2023-05-07T01:17:35;13.23;;;7.80;;
18879;SDS011;9572;52.378;13.404;2023-05-07T01:20:02;8.80;;;7.03;;
18879;SDS011;9572;52.378;13.404;2023-05-07T01:22:33;14.63;;;8.57;;
18879;SDS011;9572;52.378;13.404;2023-05-07T01:25:02;12.10;;;7.97;;
18879;SDS011;9572;52.378;13.404;2023-05-07T01:27:30;12.20;;;8.17;;
18879;SDS011;9572;52.378;13.404;2023-05-07T01:29:58;10.50;;;7.17;;
18879;SDS011;9572;52.378;13.404;2023-05-07T01:32:27;10.57;;;7.57;;
18879;SDS011;9572;52.378;13.404;2023-05-07T01:34:59;8.73;;;7.33;;
18879;SDS011;9572;52.378;13.404;2023-05-07T01:37:27;11.27;;;7.50;;
18879;SDS011;9572;52.378;13.404;2023-05-07T01:39:56;11.27;;;7.63;;
18879;SDS011;9572;52.378;13.404;2023-05-07T01:42:24;10.43;;;8.17;;
18879;SDS011;9572;52.378;13.404;2023-05-07T01:44:51;13.33;;;8.83;;
18879;SDS011;9572;52.378;13.404;2023-05-07T01:47:18;10.87;;;7.90;;
18879;SDS011;9572;52.378;13.404;2023-05-07T01:49:46;11.03;;;8.20;;
18879;SDS011;9572;52.378;13.404;2023-05-07T01:52:13;14.63;;;8.83;;
18879;SDS011;9572;52.378;13.404;2023-05-07T01:54:40;11.03;;;8.53;;
18879;SDS011;9572;52.378;13.404;2023-05-07T01:57:09;12.50;;;9.03;;
18879;SDS011;9572;52.378;13.404;2023-05-07T01:59:35;12.03;;;9.57;;
18879;SDS011;9572;52.378;13.404;2023-05-07T02:02:02;12.13;;;8.73;;
18879;SDS011;9572;52.378;13.404;2023-05-07T02:04:29;13.30;;;9.07;;
18879;SDS011;9572;52.378;13.404;2023-05-07T02:06:56;11.43;;;7.80;;
18879;SDS011;9572;52.378;13.404;2023-05-07T02:09:23;12.77;;;8.57;;
18879;SDS011;9572;52.378;13.404;2023-05-07T02:11:50;11.27;;;8.30;;
18879;SDS011;9572;52.378;13.404;2023-05-07T02:14:18;12.70;;;7.77;;
18879;SDS011;9572;52.378;13.404;2023-05-07T02:16:45;12.73;;;8.00;;
18879;SDS011;9572;52.378;13.404;2023-05-07T02:19:12;9.93;;;7.90;;
18879;SDS011;9572;52.378;13.404;2023-05-07T02:21:39;14.63;;;8.27;;
18879;SDS011;9572;52.378;13.404;2023-05-07T02:24:06;11.57;;;8.07;;
18879;SDS011;9572;52.378;13.404;2023-05-07T02:26:33;9.87;;;7.77;;
18879;SDS011;9572;52.378;13.404;2023-05-07T02:29:00;17.07;;;8.70;;
18879;SDS011;9572;52.378;13.404;2023-05-07T02:31:28;12.90;;;8.73;;
18879;SDS011;9572;52.378;13.404;2023-05-07T02:33:55;16.00;;;9.10;;
18879;SDS011;9572;52.378;13.404;2023-05-07T02:36:22;14.60;;;9.20;;
18879;SDS011;9572;52.378;13.404;2023-05-07T02:38:49;15.63;;;8.67;;
18879;SDS011;9572;52.378;13.404;2023-05-07T02:41:15;16.77;;;8.60;;
18879;SDS011;9572;52.378;13.404;2023-05-07T02:43:42;11.20;;;8.00;;
18879;SDS011;9572;52.378;13.404;2023-05-07T02:46:09;11.13;;;7.93;;
18879;SDS011;9572;52.378;13.404;2023-05-07T02:48:37;12.93;;;8.80;;
18879;SDS011;9572;52.378;13.404;2023-05-07T02:51:04;13.97;;;9.03;;
18879;SDS011;9572;52.378;13.404;2023-05-07T02:53:31;12.87;;;8.07;;
18879;SDS011;9572;52.378;13.404;2023-05-07T02:55:58;13.50;;;9.10;;
18879;SDS011;9572;52.378;13.404;2023-05-07T02:58:26;12.97;;;8.63;;
18879;SDS011;9572;52.378;13.404;2023-05-07T03:00:53;15.60;;;8.63;;
18879;SDS011;9572;52.378;13.404;2023-05-07T03:03:20;11.97;;;7.70;;
18879;SDS011;9572;52.378;13.404;2023-05-07T03:05:48;12.73;;;8.40;;
18879;SDS011;9572;52.378;13.404;2023-05-07T03:08:15;11.90;;;7.53;;
18879;SDS011;9572;52.378;13.404;2023-05-07T03:10:43;12.07;;;8.70;;
18879;SDS011;9572;52.378;13.404;2023-05-07T03:13:10;14.70;;;8.87;;
18879;SDS011;9572;52.378;13.404;2023-05-07T03:15:37;16.37;;;9.30;;
18879;SDS011;9572;52.378;13.404;2023-05-07T03:18:03;14.43;;;8.90;;
18879;SDS011;9572;52.378;13.404;2023-05-07T03:20:30;17.03;;;8.70;;
18879;SDS011;9572;52.378;13.404;2023-05-07T03:22:59;15.50;;;9.30;;
18879;SDS011;9572;52.378;13.404;2023-05-07T03:25:25;11.73;;;9.00;;
18879;SDS011;9572;52.378;13.404;2023-05-07T03:27:52;12.03;;;9.23;;
18879;SDS011;9572;52.378;13.404;2023-05-07T03:30:19;16.90;;;10.47;;
18879;SDS011;9572;52.378;13.404;2023-05-07T03:32:46;14.83;;;9.33;;
18879;SDS011;9572;52.378;13.404;2023-05-07T03:35:13;12.07;;;9.23;;
18879;SDS011;9572;52.378;13.404;2023-05-07T03:37:40;15.00;;;9.10;;
18879;SDS011;9572;52.378;13.404;2023-05-07T03:40:09;16.27;;;9.40;;
18879;SDS011;9572;52.378;13.404;2023-05-07T03:42:37;15.10;;;9.90;;
18879;SDS011;9572;52.378;13.404;2023-05-07T03:45:04;13.60;;;9.60;;
18879;SDS011;9572;52.378;13.404;2023-05-07T03:47:31;13.27;;;9.43;;
18879;SDS011;9572;52.378;13.404;2023-05-07T03:49:58;13.63;;;9.53;;
18879;SDS011;9572;52.378;13.404;2023-05-07T03:52:25;14.37;;;9.13;;
18879;SDS011;9572;52.378;13.404;2023-05-07T03:54:52;14.83;;;10.27;;
18879;SDS011;9572;52.378;13.404;2023-05-07T03:57:21;12.93;;;9.87;;
18879;SDS011;9572;52.378;13.404;2023-05-07T03:59:48;16.93;;;9.97;;
18879;SDS011;9572;52.378;13.404;2023-05-07T04:02:15;14.67;;;9.97;;
18879;SDS011;9572;52.378;13.404;2023-05-07T04:04:41;12.17;;;9.33;;
18879;SDS011;9572;52.378;13.404;2023-05-07T04:07:08;11.70;;;8.60;;
18879;SDS011;9572;52.378;13.404;2023-05-07T04:09:35;12.60;;;8.33;;
18879;SDS011;9572;52.378;13.404;2023-05-07T04:12:02;9.77;;;7.60;;
18879;SDS011;9572;52.378;13.404;2023-05-07T04:14:31;14.53;;;8.73;;
18879;SDS011;9572;52.378;13.404;2023-05-07T04:16:58;12.73;;;8.40;;
18879;SDS011;9572;52.378;13.404;2023-05-07T04:19:25;15.53;;;9.47;;
18879;SDS011;9572;52.378;13.404;2023-05-07T04:21:52;12.57;;;8.30;;
18879;SDS011;9572;52.378;13.404;2023-05-07T04:24:19;12.30;;;8.37;;
18879;SDS011;9572;52.378;13.404;2023-05-07T04:26:45;14.53;;;8.47;;
18879;SDS011;9572;52.378;13.404;2023-05-07T04:29:12;11.00;;;8.13;;
18879;SDS011;9572;52.378;13.404;2023-05-07T04:31:41;12.53;;;8.50;;
18879;SDS011;9572;52.378;13.404;2023-05-07T04:34:09;10.90;;;8.17;;
18879;SDS011;9572;52.378;13.404;2023-05-07T04:36:36;11.13;;;7.77;;
18879;SDS011;9572;52.378;13.404;2023-05-07T04:39:03;11.50;;;7.40;;
18879;SDS011;9572;52.378;13.404;2023-05-07T04:41:31;12.27;;;7.80;;
18879;SDS011;9572;52.378;13.404;2023-05-07T04:43:58;10.93;;;7.60;;
18879;SDS011;9572;52.378;13.404;2023-05-07T04:46:25;10.30;;;7.50;;
18879;SDS011;9572;52.378;13.404;2023-05-07T04:48:53;10.70;;;7.30;;
18879;SDS011;9572;52.378;13.404;2023-05-07T04:51:20;13.17;;;7.63;;
18879;SDS011;9572;52.378;13.404;2023-05-07T04:53:47;9.90;;;7.27;;
18879;SDS011;9572;52.378;13.404;2023-05-07T04:56:14;11.50;;;8.00;;
18879;SDS011;9572;52.378;13.404;2023-05-07T04:58:41;9.70;;;7.07;;
18879;SDS011;9572;52.378;13.404;2023-05-07T05:01:08;10.07;;;7.90;;
18879;SDS011;9572;52.378;13.404;2023-05-07T05:03:35;11.47;;;7.33;;
18879;SDS011;9572;52.378;13.404;2023-05-07T05:06:04;9.20;;;7.33;;
18879;SDS011;9572;52.378;13.404;2023-05-07T05:08:31;11.50;;;7.23;;
18879;SDS011;9572;52.378;13.404;2023-05-07T05:10:58;9.63;;;7.07;;
18879;SDS011;9572;52.378;13.404;2023-05-07T05:13:26;10.77;;;7.43;;
18879;SDS011;9572;52.378;13.404;2023-05-07T05:15:53;15.03;;;7.37;;
18879;SDS011;9572;52.378;13.404;2023-05-07T05:18:20;11.83;;;6.90;;
18879;SDS011;9572;52.378;13.404;2023-05-07T05:20:47;9.60;;;6.93;;
18879;SDS011;9572;52.378;13.404;2023-05-07T05:23:16;9.50;;;6.73;;
18879;SDS011;9572;52.378;13.404;2023-05-07T05:25:43;7.63;;;6.33;;
18879;SDS011;9572;52.378;13.404;2023-05-07T05:28:09;8.67;;;6.73;;
18879;SDS011;9572;52.378;13.404;2023-05-07T05:30:36;9.47;;;6.80;;
18879;SDS011;9572;52.378;13.404;2023-05-07T05:33:03;10.83;;;6.93;;
18879;SDS011;9572;52.378;13.404;2023-05-07T05:35:30;8.27;;;6.50;;
18879;SDS011;9572;52.378;13.404;2023-05-07T05:37:57;8.27;;;6.17;;
18879;SDS011;9572;52.378;13.404;2023-05-07T05:40:26;8.47;;;6.50;;
18879;SDS011;9572;52.378;13.404;2023-05-07T05:42:52;10.33;;;6.60;;
18879;SDS011;9572;52.378;13.404;2023-05-07T05:45:19;8.90;;;6.73;;
18879;SDS011;9572;52.378;13.404;2023-05-07T05:47:46;8.43;;;6.30;;
18879;SDS011;9572;52.378;13.404;2023-05-07T05:50:13;9.07;;;6.37;;
18879;SDS011;9572;52.378;13.404;2023-05-07T05:52:40;9.13;;;6.37;;
18879;SDS011;9572;52.378;13.404;2023-05-07T05:55:07;8.17;;;6.40;;
18879;SDS011;9572;52.378;13.404;2023-05-07T05:57:36;7.90;;;6.03;;
18879;SDS011;9572;52.378;13.404;2023-05-07T06:00:04;9.10;;;6.00;;
18879;SDS011;9572;52.378;13.404;2023-05-07T06:02:32;8.87;;;6.10;;
18879;SDS011;9572;52.378;13.404;2023-05-07T06:04:59;7.83;;;5.83;;
18879;SDS011;9572;52.378;13.404;2023-05-07T06:07:26;8.30;;;5.57;;
18879;SDS011;9572;52.378;13.404;2023-05-07T06:09:53;7.47;;;5.10;;
18879;SDS011;9572;52.378;13.404;2023-05-07T06:12:20;7.47;;;4.80;;
18879;SDS011;9572;52.378;13.404;2023-05-07T06:14:48;8.17;;;4.60;;
18879;SDS011;9572;52.378;13.404;2023-05-07T06:17:15;7.23;;;4.50;;
18879;SDS011;9572;52.378;13.404;2023-05-07T06:19:42;7.00;;;5.37;;
18879;SDS011;9572;52.378;13.404;2023-05-07T06:22:09;6.50;;;4.90;;
18879;SDS011;9572;52.378;13.404;2023-05-07T06:24:36;7.57;;;5.00;;
18879;SDS011;9572;52.378;13.404;2023-05-07T06:27:03;5.50;;;4.47;;
18879;SDS011;9572;52.378;13.404;2023-05-07T06:29:30;8.63;;;5.37;;
18879;SDS011;9572;52.378;13.404;2023-05-07T06:32:07;6.53;;;4.90;;
18879;SDS011;9572;52.378;13.404;2023-05-07T06:34:34;7.43;;;5.17;;
18879;SDS011;9572;52.378;13.404;2023-05-07T06:37:01;10.47;;;4.97;;
18879;SDS011;9572;52.378;13.404;2023-05-07T06:39:28;11.23;;;5.87;;
18879;SDS011;9572;52.378;13.404;2023-05-07T06:41:55;7.23;;;5.33;;
18879;SDS011;9572;52.378;13.404;2023-05-07T06:44:22;7.17;;;5.20;;
18879;SDS011;9572;52.378;13.404;2023-05-07T06:46:49;13.00;;;5.97;;
18879;SDS011;9572;52.378;13.404;2023-05-07T06:49:18;9.23;;;5.20;;
18879;SDS011;9572;52.378;13.404;2023-05-07T06:51:46;7.33;;;5.40;;
18879;SDS011;9572;52.378;13.404;2023-05-07T06:54:13;8.70;;;5.43;;
18879;SDS011;9572;52.378;13.404;2023-05-07T06:56:40;9.07;;;5.07;;
18879;SDS011;9572;52.378;13.404;2023-05-07T06:59:06;6.90;;;5.23;;
18879;SDS011;9572;52.378;13.404;2023-05-07T07:01:33;8.40;;;5.70;;
18879;SDS011;9572;52.378;13.404;2023-05-07T07:04:00;8.60;;;6.10;;
18879;SDS011;9572;52.378;13.404;2023-05-07T07:06:29;8.77;;;5.90;;
18879;SDS011;9572;52.378;13.404;2023-05-07T07:08:57;8.10;;;5.37;;
18879;SDS011;9572;52.378;13.404;2023-05-07T07:11:24;8.00;;;5.37;;
18879;SDS011;9572;52.378;13.404;2023-05-07T07:13:51;8.60;;;5.30;;
18879;SDS011;9572;52.378;13.404;2023-05-07T07:16:19;9.00;;;5.03;;
18879;SDS011;9572;52.378;13.404;2023-05-07T07:18:46;7.67;;;5.43;;
18879;SDS011;9572;52.378;13.404;2023-05-07T07:21:13;7.70;;;5.27;;
18879;SDS011;9572;52.378;13.404;2023-05-07T07:23:41;8.17;;;4.97;;
18879;SDS011;9572;52.378;13.404;2023-05-07T07:26:08;6.57;;;4.70;;
18879;SDS011;9572;52.378;13.404;2023-05-07T07:28:35;7.83;;;4.63;;
18879;SDS011;9572;52.378;13.404;2023-05-07T07:31:08;11.33;;;5.33;;
18879;SDS011;9572;52.378;13.404;2023-05-07T07:33:35;7.17;;;4.80;;
18879;SDS011;9572;52.378;13.404;2023-05-07T07:36:01;5.53;;;4.33;;
18879;SDS011;9572;52.378;13.404;2023-05-07T07:38:29;9.43;;;5.30;;
18879;SDS011;9572;52.378;13.404;2023-05-07T07:40:57;6.63;;;4.60;;
18879;SDS011;9572;52.378;13.404;2023-05-07T07:43:24;8.70;;;4.32;;
18879;SDS011;9572;52.378;13.404;2023-05-07T07:45:50;5.80;;;4.50;;
18879;SDS011;9572;52.378;13.404;2023-05-07T07:48:17;5.93;;;4.20;;
18879;SDS011;9572;52.378;13.404;2023-05-07T07:50:44;6.13;;;5.03;;
18879;SDS011;9572;52.378;13.404;2023-05-07T07:53:14;4.65;;;4.20;;
18879;SDS011;9572;52.378;13.404;2023-05-07T07:55:41;7.45;;;4.25;;
18879;SDS011;9572;52.378;13.404;2023-05-07T07:58:09;6.90;;;4.13;;
18879;SDS011;9572;52.378;13.404;2023-05-07T08:00:36;6.70;;;4.18;;
18879;SDS011;9572;52.378;13.404;2023-05-07T08:03:03;4.40;;;3.42;;
18879;SDS011;9572;52.378;13.404;2023-05-07T08:05:31;3.20;;;2.90;;
18879;SDS011;9572;52.378;13.404;2023-05-07T08:07:58;5.88;;;3.60;;
18879;SDS011;9572;52.378;13.404;2023-05-07T08:10:25;5.07;;;3.20;;
18879;SDS011;9572;52.378;13.404;2023-05-07T08:12:52;4.03;;;3.63;;
18879;SDS011;9572;52.378;13.404;2023-05-07T08:15:20;3.72;;;3.25;;
18879;SDS011;9572;52.378;13.404;2023-05-07T08:17:47;3.35;;;2.78;;
18879;SDS011;9572;52.378;13.404;2023-05-07T08:20:14;3.50;;;3.03;;
18879;SDS011;9572;52.378;13.404;2023-05-07T08:22:41;5.22;;;3.00;;
18879;SDS011;9572;52.378;13.404;2023-05-07T08:25:08;7.30;;;3.08;;
18879;SDS011;9572;52.378;13.404;2023-05-07T08:27:35;3.13;;;2.60;;
18879;SDS011;9572;52.378;13.404;2023-05-07T08:30:02;3.17;;;2.60;;
18879;SDS011;9572;52.378;13.404;2023-05-07T08:32:32;4.05;;;2.70;;
18879;SDS011;9572;52.378;13.404;2023-05-07T08:34:59;5.13;;;2.70;;
18879;SDS011;9572;52.378;13.404;2023-05-07T08:37:26;5.65;;;3.05;;
18879;SDS011;9572;52.378;13.404;2023-05-07T08:39:53;6.40;;;3.30;;
18879;SDS011;9572;52.378;13.404;2023-05-07T08:42:20;4.60;;;2.90;;
18879;SDS011;9572;52.378;13.404;2023-05-07T08:44:49;4.20;;;3.00;;
18879;SDS011;9572;52.378;13.404;2023-05-07T08:47:19;5.68;;;3.08;;
18879;SDS011;9572;52.378;13.404;2023-05-07T08:49:54;5.55;;;2.92;;
18879;SDS011;9572;52.378;13.404;2023-05-07T08:52:21;6.30;;;2.83;;
18879;SDS011;9572;52.378;13.404;2023-05-07T08:54:48;5.25;;;2.70;;
18879;SDS011;9572;52.378;13.404;2023-05-07T08:57:15;4.40;;;2.35;;
18879;SDS011;9572;52.378;13.404;2023-05-07T08:59:41;2.85;;;2.53;;
18879;SDS011;9572;52.378;13.404;2023-05-07T09:02:08;3.00;;;2.70;;
18879;SDS011;9572;52.378;13.404;2023-05-07T09:04:37;5.70;;;3.00;;
18879;SDS011;9572;52.378;13.404;2023-05-07T09:07:05;4.82;;;2.35;;
18879;SDS011;9572;52.378;13.404;2023-05-07T09:09:32;2.30;;;2.10;;
18879;SDS011;9572;52.378;13.404;2023-05-07T09:11:59;3.10;;;2.13;;
18879;SDS011;9572;52.378;13.404;2023-05-07T09:14:27;1.88;;;1.73;;
18879;SDS011;9572;52.378;13.404;2023-05-07T09:16:55;2.75;;;2.20;;
18879;SDS011;9572;52.378;13.404;2023-05-07T09:19:22;2.42;;;1.70;;
18879;SDS011;9572;52.378;13.404;2023-05-07T09:21:50;3.13;;;1.98;;
18879;SDS011;9572;52.378;13.404;2023-05-07T09:24:26;2.22;;;1.83;;
18879;SDS011;9572;52.378;13.404;2023-05-07T09:26:53;2.65;;;1.80;;
18879;SDS011;9572;52.378;13.404;2023-05-07T09:29:21;3.45;;;1.70;;
18879;SDS011;9572;52.378;13.404;2023-05-07T09:31:48;3.72;;;2.10;;
18879;SDS011;9572;52.378;13.404;2023-05-07T09:34:15;5.03;;;1.60;;
18879;SDS011;9572;52.378;13.404;2023-05-07T09:36:42;3.58;;;2.13;;
18879;SDS011;9572;52.378;13.404;2023-05-07T09:39:09;2.92;;;1.80;;
18879;SDS011;9572;52.378;13.404;2023-05-07T09:41:44;2.95;;;1.83;;
18879;SDS011;9572;52.378;13.404;2023-05-07T09:44:11;1.55;;;1.45;;
18879;SDS011;9572;52.378;13.404;2023-05-07T09:46:38;3.58;;;2.22;;
18879;SDS011;9572;52.378;13.404;2023-05-07T09:49:08;3.20;;;2.35;;
18879;SDS011;9572;52.378;13.404;2023-05-07T09:51:43;2.13;;;1.55;;
18879;SDS011;9572;52.378;13.404;2023-05-07T09:54:14;1.33;;;1.23;;
18879;SDS011;9572;52.378;13.404;2023-05-07T09:56:41;1.38;;;1.27;;
18879;SDS011;9572;52.378;13.404;2023-05-07T09:59:11;1.38;;;1.20;;
18879;SDS011;9572;52.378;13.404;2023-05-07T10:01:40;4.15;;;1.45;;
18879;SDS011;9572;52.378;13.404;2023-05-07T10:04:08;4.07;;;1.50;;
18879;SDS011;9572;52.378;13.404;2023-05-07T10:06:35;1.75;;;1.42;;
18879;SDS011;9572;52.378;13.404;2023-05-07T10:09:04;4.25;;;1.48;;
18879;SDS011;9572;52.378;13.404;2023-05-07T10:11:31;1.40;;;1.30;;
18879;SDS011;9572;52.378;13.404;2023-05-07T10:14:00;2.95;;;1.60;;
18879;SDS011;9572;52.378;13.404;2023-05-07T10:16:28;1.88;;;1.73;;
18879;SDS011;9572;52.378;13.404;2023-05-07T10:18:57;1.35;;;1.25;;
18879;SDS011;9572;52.378;13.404;2023-05-07T10:21:24;2.92;;;1.85;;
18879;SDS011;9572;52.378;13.404;2023-05-07T10:23:57;2.90;;;1.40;;
18879;SDS011;9572;52.378;13.404;2023-05-07T10:26:25;2.42;;;1.40;;
18879;SDS011;9572;52.378;13.404;2023-05-07T10:28:56;3.33;;;1.50;;
18879;SDS011;9572;52.378;13.404;2023-05-07T10:31:32;5.60;;;1.77;;
18879;SDS011;9572;52.378;13.404;2023-05-07T10:34:09;1.48;;;1.38;;
18879;SDS011;9572;52.378;13.404;2023-05-07T10:36:39;1.80;;;1.67;;
18879;SDS011;9572;52.378;13.404;2023-05-07T10:39:07;2.53;;;1.38;;
18879;SDS011;9572;52.378;13.404;2023-05-07T10:41:34;2.13;;;1.35;;
18879;SDS011;9572;52.378;13.404;2023-05-07T10:44:02;2.33;;;1.27;;
18879;SDS011;9572;52.378;13.404;2023-05-07T10:46:30;2.13;;;1.60;;
18879;SDS011;9572;52.378;13.404;2023-05-07T10:49:06;2.42;;;1.75;;
18879;SDS011;9572;52.378;13.404;2023-05-07T10:51:37;1.50;;;1.40;;
18879;SDS011;9572;52.378;13.404;2023-05-07T10:54:17;2.35;;;1.17;;
18879;SDS011;9572;52.378;13.404;2023-05-07T10:56:45;2.25;;;1.60;;
18879;SDS011;9572;52.378;13.404;2023-05-07T11:02:10;4.15;;;1.70;;
18879;SDS011;9572;52.378;13.404;2023-05-07T11:04:39;1.60;;;1.33;;
18879;SDS011;9572;52.378;13.404;2023-05-07T11:07:24;3.65;;;1.50;;
18879;SDS011;9572;52.378;13.404;2023-05-07T11:09:58;3.30;;;1.40;;
18879;SDS011;9572;52.378;13.404;2023-05-07T11:15:36;4.70;;;1.65;;
18879;SDS011;9572;52.378;13.404;2023-05-07T11:18:09;2.53;;;1.50;;
18879;SDS011;9572;52.378;13.404;2023-05-07T11:20:50;2.75;;;1.58;;
18879;SDS011;9572;52.378;13.404;2023-05-07T11:26:24;2.58;;;1.30;;
18879;SDS011;9572;52.378;13.404;2023-05-07T11:28:53;1.73;;;1.30;;
18879;SDS011;9572;52.378;13.404;2023-05-07T11:31:21;2.97;;;1.40;;
18879;SDS011;9572;52.378;13.404;2023-05-07T11:33:52;1.63;;;1.50;;
18879;SDS011;9572;52.378;13.404;2023-05-07T11:36:20;1.92;;;1.27;;
18879;SDS011;9572;52.378;13.404;2023-05-07T11:38:48;1.35;;;1.20;;
18879;SDS011;9572;52.378;13.404;2023-05-07T11:41:16;2.72;;;1.42;;
18879;SDS011;9572;52.378;13.404;2023-05-07T11:43:57;2.47;;;1.65;;
18879;SDS011;9572;52.378;13.404;2023-05-07T11:46:26;1.52;;;1.40;;
18879;SDS011;9572;52.378;13.404;2023-05-07T11:48:55;1.63;;;1.40;;
18879;SDS011;9572;52.378;13.404;2023-05-07T11:51:23;2.13;;;1.60;;
18879;SDS011;9572;52.378;13.404;2023-05-07T11:53:51;1.50;;;1.30;;
18879;SDS011;9572;52.378;13.404;2023-05-07T11:56:19;1.50;;;1.40;;
18879;SDS011;9572;52.378;13.404;2023-05-07T11:58:47;7.13;;;1.42;;
18879;SDS011;9572;52.378;13.404;2023-05-07T12:01:14;2.88;;;1.40;;
18879;SDS011;9572;52.378;13.404;2023-05-07T12:03:43;2.63;;;1.75;;
18879;SDS011;9572;52.378;13.404;2023-05-07T12:06:12;6.68;;;1.40;;
18879;SDS011;9572;52.378;13.404;2023-05-07T12:08:41;3.60;;;1.63;;
18879;SDS011;9572;52.378;13.404;2023-05-07T12:11:09;1.95;;;1.30;;
18879;SDS011;9572;52.378;13.404;2023-05-07T12:13:40;3.28;;;1.50;;
18879;SDS011;9572;52.378;13.404;2023-05-07T12:16:07;2.65;;;1.40;;
18879;SDS011;9572;52.378;13.404;2023-05-07T12:18:35;3.30;;;1.52;;
18879;SDS011;9572;52.378;13.404;2023-05-07T12:21:03;1.48;;;1.38;;
18879;SDS011;9572;52.378;13.404;2023-05-07T12:23:32;1.52;;;1.38;;
18879;SDS011;9572;52.378;13.404;2023-05-07T12:26:00;2.55;;;1.35;;
18879;SDS011;9572;52.378;13.404;2023-05-07T12:28:27;1.30;;;1.10;;
18879;SDS011;9572;52.378;13.404;2023-05-07T12:30:55;2.13;;;1.52;;
18879;SDS011;9572;52.378;13.404;2023-05-07T12:33:23;2.03;;;1.50;;
18879;SDS011;9572;52.378;13.404;2023-05-07T12:35:52;3.50;;;1.33;;
18879;SDS011;9572;52.378;13.404;2023-05-07T12:38:20;2.35;;;1.38;;
18879;SDS011;9572;52.378;13.404;2023-05-07T12:40:49;2.30;;;1.40;;
18879;SDS011;9572;52.378;13.404;2023-05-07T12:43:17;3.13;;;1.45;;
18879;SDS011;9572;52.378;13.404;2023-05-07T12:45:45;1.95;;;1.50;;
18879;SDS011;9572;52.378;13.404;2023-05-07T12:48:13;2.30;;;1.30;;
18879;SDS011;9572;52.378;13.404;2023-05-07T12:50:40;1.80;;;1.63;;
18879;SDS011;9572;52.378;13.404;2023-05-07T12:53:08;1.67;;;1.45;;
18879;SDS011;9572;52.378;13.404;2023-05-07T12:55:40;3.40;;;1.52;;
18879;SDS011;9572;52.378;13.404;2023-05-07T12:58:09;2.58;;;1.40;;
18879;SDS011;9572;52.378;13.404;2023-05-07T13:00:42;1.98;;;1.15;;
18879;SDS011;9572;52.378;13.404;2023-05-07T13:03:09;1.25;;;1.15;;
18879;SDS011;9572;52.378;13.404;2023-05-07T13:05:37;5.05;;;1.90;;
18879;SDS011;9572;52.378;13.404;2023-05-07T13:08:04;2.80;;;1.52;;
18879;SDS011;9572;52.378;13.404;2023-05-07T13:10:31;5.50;;;1.10;;
18879;SDS011;9572;52.378;13.404;2023-05-07T13:12:59;2.95;;;1.35;;
18879;SDS011;9572;52.378;13.404;2023-05-07T13:15:27;3.92;;;1.30;;
18879;SDS011;9572;52.378;13.404;2023-05-07T13:17:54;1.63;;;1.35;;
18879;SDS011;9572;52.378;13.404;2023-05-07T13:20:21;2.05;;;1.50;;
18879;SDS011;9572;52.378;13.404;2023-05-07T13:22:48;3.72;;;1.30;;
18879;SDS011;9572;52.378;13.404;2023-05-07T13:25:15;3.53;;;1.42;;
18879;SDS011;9572;52.378;13.404;2023-05-07T13:27:42;1.33;;;1.23;;
18879;SDS011;9572;52.378;13.404;2023-05-07T13:30:09;2.83;;;1.40;;
18879;SDS011;9572;52.378;13.404;2023-05-07T13:32:37;5.13;;;1.48;;
18879;SDS011;9572;52.378;13.404;2023-05-07T13:35:04;1.98;;;1.65;;
18879;SDS011;9572;52.378;13.404;2023-05-07T13:37:32;1.67;;;1.58;;
18879;SDS011;9572;52.378;13.404;2023-05-07T13:39:59;3.58;;;1.30;;
18879;SDS011;9572;52.378;13.404;2023-05-07T13:42:26;3.03;;;1.40;;
18879;SDS011;9572;52.378;13.404;2023-05-07T13:44:53;2.67;;;1.52;;
18879;SDS011;9572;52.378;13.404;2023-05-07T13:47:20;3.00;;;1.35;;
18879;SDS011;9572;52.378;13.404;2023-05-07T13:49:48;1.92;;;1.30;;
18879;SDS011;9572;52.378;13.404;2023-05-07T13:52:15;4.53;;;2.33;;
18879;SDS011;9572;52.378;13.404;2023-05-07T13:54:42;1.55;;;1.27;;
18879;SDS011;9572;52.378;13.404;2023-05-07T13:57:09;1.25;;;1.13;;
18879;SDS011;9572;52.378;13.404;2023-05-07T13:59:36;6.53;;;4.57;;
18879;SDS011;9572;52.378;13.404;2023-05-07T14:02:02;6.20;;;1.40;;
18879;SDS011;9572;52.378;13.404;2023-05-07T14:04:30;1.70;;;1.20;;
18879;SDS011;9572;52.378;13.404;2023-05-07T14:06:58;1.77;;;1.63;;
18879;SDS011;9572;52.378;13.404;2023-05-07T14:09:25;1.40;;;1.10;;
18879;SDS011;9572;52.378;13.404;2023-05-07T14:11:52;1.77;;;1.30;;
18879;SDS011;9572;52.378;13.404;2023-05-07T14:14:19;1.92;;;1.20;;
18879;SDS011;9572;52.378;13.404;2023-05-07T14:16:45;1.45;;;1.17;;
18879;SDS011;9572;52.378;13.404;2023-05-07T14:19:12;3.50;;;1.60;;
18879;SDS011;9572;52.378;13.404;2023-05-07T14:21:39;2.42;;;1.15;;
18879;SDS011;9572;52.378;13.404;2023-05-07T14:24:08;1.75;;;1.27;;
18879;SDS011;9572;52.378;13.404;2023-05-07T14:26:35;1.30;;;1.10;;
18879;SDS011;9572;52.378;13.404;2023-05-07T14:29:02;1.73;;;1.25;;
18879;SDS011;9572;52.378;13.404;2023-05-07T14:31:29;1.60;;;1.35;;
18879;SDS011;9572;52.378;13.404;2023-05-07T14:33:57;4.05;;;3.13;;
18879;SDS011;9572;52.378;13.404;2023-05-07T14:36:25;1.83;;;1.50;;
18879;SDS011;9572;52.378;13.404;2023-05-07T14:38:52;3.85;;;1.52;;
18879;SDS011;9572;52.378;13.404;2023-05-07T14:41:21;5.18;;;1.30;;
18879;SDS011;9572;52.378;13.404;2023-05-07T14:43:48;2.75;;;1.30;;
18879;SDS011;9572;52.378;13.404;2023-05-07T14:46:16;1.30;;;1.10;;
18879;SDS011;9572;52.378;13.404;2023-05-07T14:48:43;1.85;;;1.25;;
18879;SDS011;9572;52.378;13.404;2023-05-07T14:51:11;4.10;;;1.90;;
18879;SDS011;9572;52.378;13.404;2023-05-07T14:53:38;1.45;;;1.35;;
18879;SDS011;9572;52.378;13.404;2023-05-07T14:56:06;3.45;;;1.30;;